Time;durP1;ratioP1;P1;durP2;ratioP2;P2;SDS_P1;SDS_P2;PMS_P1;PMS_P2;Temp;Humidity;BMP_temperature;BMP_pressure;BME280_temperature;BME280_humidity;BME280_pressure;Samples;Min_cycle;Max_cycle;Signal;HPM_P1;HPM_P2
2022/12/03 00:01:20;;;;;;;17.13;9.27;;;;;;;;;;10405110;28;20112;-76
2022/12/03 00:06:20;;;;;;;22.55;9.40;;;;;;;;;;10405585;28;20030;-78
2022/12/03 00:11:25;;;;;;;16.95;9.10;;;;;;;;;;10403407;28;20021;-76
2022/12/03 00:16:25;;;;;;;14.85;6.95;;;;;;;;;;10406419;28;20113;-84
2022/12/03 00:21:26;;;;;;;17.98;7.57;;;;;;;;;;10407396;28;20044;-74
2022/12/03 00:26:27;;;;;;;13.37;6.50;;;;;;;;;;10405413;28;20049;-78
2022/12/03 00:31:27;;;;;;;14.82;6.88;;;;;;;;;;10406239;28;20116;-79
2022/12/03 00:36:27;;;;;;;17.13;7.60;;;;;;;;;;10402293;28;20029;-80
2022/12/03 00:41:27;;;;;;;14.93;6.88;;;;;;;;;;10405866;28;20020;-80
2022/12/03 00:46:29;;;;;;;14.02;7.00;;;;;;;;;;10403421;28;20092;-77
2022/12/03 00:51:29;;;;;;;15.43;7.03;;;;;;;;;;10417355;28;20029;-74
2022/12/03 00:56:30;;;;;;;11.77;5.83;;;;;;;;;;10420003;28;20124;-72
2022/12/03 01:01:31;;;;;;;11.18;5.97;;;;;;;;;;10424071;28;20033;-73
2022/12/03 01:06:31;;;;;;;14.43;5.78;;;;;;;;;;10414754;28;20033;-79
2022/12/03 01:11:37;;;;;;;15.02;6.65;;;;;;;;;;10402388;28;20457;-78
2022/12/03 01:16:40;;;;;;;11.38;6.22;;;;;;;;;;10406635;28;20036;-77
2022/12/03 01:21:46;;;;;;;11.40;5.72;;;;;;;;;;10400762;28;20101;-80
2022/12/03 01:26:46;;;;;;;9.40;4.68;;;;;;;;;;10399815;28;20483;-74
2022/12/03 01:37:06;;;;;;;12.15;5.93;;;;;;;;;;10401526;28;20367;-81
2022/12/03 01:42:08;;;;;;;12.63;5.87;;;;;;;;;;10401994;28;20483;-82
2022/12/03 01:47:14;;;;;;;11.48;4.97;;;;;;;;;;10400721;28;20545;-76
2022/12/03 01:52:16;;;;;;;10.95;5.32;;;;;;;;;;10401616;28;20040;-77
2022/12/03 01:57:16;;;;;;;12.20;6.03;;;;;;;;;;10402355;28;20025;-76
2022/12/03 02:02:20;;;;;;;10.00;5.40;;;;;;;;;;10401013;28;20029;-75
2022/12/03 02:07:22;;;;;;;15.10;7.70;;;;;;;;;;10399967;28;20026;-76
2022/12/03 02:12:34;;;;;;;12.40;5.72;;;;;;;;;;10400585;28;20040;-78
2022/12/03 02:17:36;;;;;;;14.48;6.43;;;;;;;;;;10402208;28;20470;-77
2022/12/03 02:22:52;;;;;;;13.05;6.55;;;;;;;;;;10401334;28;20028;-78
2022/12/03 02:27:53;;;;;;;14.02;5.85;;;;;;;;;;10393368;28;20053;-77
2022/12/03 02:32:54;;;;;;;12.57;6.50;;;;;;;;;;10400992;28;20021;-81
2022/12/03 02:37:59;;;;;;;12.48;6.15;;;;;;;;;;10401375;28;20108;-80
2022/12/03 02:43:00;;;;;;;13.45;6.13;;;;;;;;;;10399015;28;20687;-83
2022/12/03 02:48:07;;;;;;;15.82;6.57;;;;;;;;;;10403481;28;20025;-76
2022/12/03 02:53:16;;;;;;;14.77;5.55;;;;;;;;;;10405526;28;20075;-76
2022/12/03 02:58:17;;;;;;;15.13;5.72;;;;;;;;;;10407122;28;20018;-79
2022/12/03 03:03:17;;;;;;;15.90;7.13;;;;;;;;;;10407409;28;20558;-81
2022/12/03 03:08:24;;;;;;;8.65;4.97;;;;;;;;;;10430535;28;20032;-73
2022/12/03 03:13:24;;;;;;;16.88;5.88;;;;;;;;;;10438096;28;20105;-73
2022/12/03 03:18:24;;;;;;;10.00;5.30;;;;;;;;;;10423125;28;20021;-77
2022/12/03 03:23:25;;;;;;;10.85;5.68;;;;;;;;;;10411378;28;20216;-76
2022/12/03 03:28:25;;;;;;;12.27;5.37;;;;;;;;;;10402345;28;20597;-80
2022/12/03 03:33:26;;;;;;;11.02;5.07;;;;;;;;;;10396773;28;20491;-73
2022/12/03 03:38:27;;;;;;;10.63;5.15;;;;;;;;;;10405475;28;20022;-80
2022/12/03 03:43:29;;;;;;;12.88;6.05;;;;;;;;;;10381067;28;20032;-81
2022/12/03 03:48:29;;;;;;;10.00;5.50;;;;;;;;;;10395670;28;20033;-76
2022/12/03 03:53:29;;;;;;;10.43;5.07;;;;;;;;;;10404661;28;20075;-80
2022/12/03 03:58:30;;;;;;;14.70;5.93;;;;;;;;;;10403936;28;20032;-76
2022/12/03 04:03:30;;;;;;;13.43;5.47;;;;;;;;;;10404154;28;20025;-75
2022/12/03 04:08:30;;;;;;;15.45;6.35;;;;;;;;;;10403382;28;20770;-80
2022/12/03 04:13:31;;;;;;;10.07;5.15;;;;;;;;;;10402522;28;20116;-79
2022/12/03 04:18:43;;;;;;;11.68;5.65;;;;;;;;;;10407232;28;20017;-79
2022/12/03 04:23:44;;;;;;;10.18;5.53;;;;;;;;;;10410220;28;20028;-79
2022/12/03 04:28:50;;;;;;;8.50;4.80;;;;;;;;;;10403369;28;20077;-84
2022/12/03 04:39:11;;;;;;;12.07;5.55;;;;;;;;;;10405583;28;20439;-83
2022/12/03 04:49:32;;;;;;;10.48;5.13;;;;;;;;;;10406929;28;20029;-80
2022/12/03 04:54:33;;;;;;;13.57;5.88;;;;;;;;;;10404030;28;20026;-80
2022/12/03 04:59:34;;;;;;;12.73;5.80;;;;;;;;;;10404106;28;20100;-80
2022/12/03 05:04:36;;;;;;;8.57;4.88;;;;;;;;;;10403055;28;20041;-80
2022/12/03 05:09:37;;;;;;;9.63;5.70;;;;;;;;;;10400831;28;20111;-81
2022/12/03 05:14:37;;;;;;;12.65;5.20;;;;;;;;;;10397229;28;20034;-77
2022/12/03 05:25:03;;;;;;;12.43;5.65;;;;;;;;;;10414172;28;20073;-74
2022/12/03 05:30:03;;;;;;;17.92;5.75;;;;;;;;;;10423681;28;20144;-79
2022/12/03 05:35:04;;;;;;;8.93;5.38;;;;;;;;;;10401317;28;20032;-75
2022/12/03 05:40:04;;;;;;;9.93;5.72;;;;;;;;;;10400419;28;20029;-83
2022/12/03 05:45:06;;;;;;;12.40;6.55;;;;;;;;;;10398310;28;20060;-76
2022/12/03 05:50:07;;;;;;;12.07;6.28;;;;;;;;;;10399535;28;20029;-76
2022/12/03 05:55:07;;;;;;;16.48;7.38;;;;;;;;;;10392111;28;20747;-74
2022/12/03 06:00:11;;;;;;;12.73;5.22;;;;;;;;;;10400083;28;20034;-75
2022/12/03 06:05:12;;;;;;;9.07;5.30;;;;;;;;;;10394662;28;20033;-75
2022/12/03 06:10:13;;;;;;;9.55;5.20;;;;;;;;;;10398898;28;20029;-73
2022/12/03 06:15:14;;;;;;;11.65;6.10;;;;;;;;;;10400706;28;20487;-80
2022/12/03 06:20:15;;;;;;;12.30;5.17;;;;;;;;;;10395222;28;20017;-78
2022/12/03 06:25:15;;;;;;;9.50;5.32;;;;;;;;;;10398896;28;20275;-78
2022/12/03 06:30:16;;;;;;;9.90;6.30;;;;;;;;;;10398102;28;20053;-81
2022/12/03 06:35:17;;;;;;;9.77;5.13;;;;;;;;;;10394143;28;20111;-81
2022/12/03 06:40:18;;;;;;;12.50;5.45;;;;;;;;;;10406347;28;20029;-78
2022/12/03 06:45:20;;;;;;;10.93;5.80;;;;;;;;;;10401865;28;20026;-82
2022/12/03 06:50:20;;;;;;;11.20;5.30;;;;;;;;;;10394190;28;20025;-80
2022/12/03 06:55:20;;;;;;;9.93;5.00;;;;;;;;;;10400884;28;20451;-79
2022/12/03 07:00:20;;;;;;;15.95;7.15;;;;;;;;;;10373217;28;20021;-81
2022/12/03 07:05:21;;;;;;;12.57;5.82;;;;;;;;;;10390166;28;20025;-77
2022/12/03 07:10:21;;;;;;;12.75;6.03;;;;;;;;;;10406053;28;20025;-76
2022/12/03 07:15:21;;;;;;;11.80;6.27;;;;;;;;;;10387842;28;20337;-77
2022/12/03 07:20:22;;;;;;;13.38;5.57;;;;;;;;;;10379375;28;20631;-78
2022/12/03 07:25:22;;;;;;;12.90;5.20;;;;;;;;;;10405028;28;20139;-81
2022/12/03 07:30:24;;;;;;;10.50;5.83;;;;;;;;;;10382308;28;20081;-76
2022/12/03 07:35:24;;;;;;;15.18;6.95;;;;;;;;;;10401767;28;20025;-75
2022/12/03 07:40:24;;;;;;;13.57;8.10;;;;;;;;;;10421195;28;20430;-76
2022/12/03 07:45:25;;;;;;;16.58;6.07;;;;;;;;;;10409587;28;20495;-76
2022/12/03 07:50:27;;;;;;;18.35;6.95;;;;;;;;;;10408339;28;20499;-75
2022/12/03 07:55:27;;;;;;;15.60;5.90;;;;;;;;;;10401022;28;20103;-76
2022/12/03 08:00:27;;;;;;;9.15;4.75;;;;;;;;;;10399868;28;20188;-79
2022/12/03 08:05:28;;;;;;;9.93;5.15;;;;;;;;;;10400611;28;20028;-78
2022/12/03 08:10:28;;;;;;;10.55;5.00;;;;;;;;;;10371630;28;20029;-79
2022/12/03 08:15:30;;;;;;;9.48;5.60;;;;;;;;;;10398027;28;20041;-80
2022/12/03 08:20:33;;;;;;;8.15;4.90;;;;;;;;;;10404921;28;20025;-76
2022/12/03 08:25:33;;;;;;;7.80;4.68;;;;;;;;;;10402883;28;20026;-79
2022/12/03 08:30:33;;;;;;;12.38;5.65;;;;;;;;;;10402355;28;20065;-79
2022/12/03 08:35:33;;;;;;;8.90;5.60;;;;;;;;;;10363871;28;20056;-76
2022/12/03 08:40:35;;;;;;;15.67;4.73;;;;;;;;;;10380919;28;20064;-78
2022/12/03 08:45:39;;;;;;;17.15;6.80;;;;;;;;;;10397854;28;20068;-77
2022/12/03 08:50:40;;;;;;;7.65;4.68;;;;;;;;;;10402409;28;20127;-76
2022/12/03 08:56:00;;;;;;;9.45;4.82;;;;;;;;;;10396846;28;20488;-80
2022/12/03 09:01:10;;;;;;;12.65;5.50;;;;;;;;;;10389010;28;20095;-75
2022/12/03 09:06:10;;;;;;;9.85;5.53;;;;;;;;;;10400724;28;20032;-75
2022/12/03 09:11:11;;;;;;;7.30;4.85;;;;;;;;;;10400870;28;20498;-79
2022/12/03 09:16:11;;;;;;;8.67;4.77;;;;;;;;;;10377634;28;20025;-78
2022/12/03 09:21:11;;;;;;;13.32;5.57;;;;;;;;;;10400469;28;20025;-83
2022/12/03 09:26:11;;;;;;;16.85;8.02;;;;;;;;;;10375675;28;20038;-77
2022/12/03 09:31:12;;;;;;;6.97;4.10;;;;;;;;;;10384534;28;20025;-75
2022/12/03 09:36:12;;;;;;;6.80;4.30;;;;;;;;;;10400588;28;20103;-75
2022/12/03 09:41:13;;;;;;;9.68;5.97;;;;;;;;;;10400143;28;20509;-77
2022/12/03 09:46:13;;;;;;;9.07;5.53;;;;;;;;;;10399791;28;20029;-75
2022/12/03 09:51:13;;;;;;;7.13;4.95;;;;;;;;;;10400678;28;20172;-80
2022/12/03 09:56:17;;;;;;;12.52;4.93;;;;;;;;;;10391424;28;20033;-77
2022/12/03 10:01:18;;;;;;;8.18;4.82;;;;;;;;;;10397732;28;20040;-75
2022/12/03 10:06:20;;;;;;;10.82;5.43;;;;;;;;;;10398200;28;20018;-77
2022/12/03 10:11:21;;;;;;;9.43;5.15;;;;;;;;;;10419880;28;20025;-76
2022/12/03 10:16:21;;;;;;;14.18;5.95;;;;;;;;;;10402042;28;20026;-79
2022/12/03 10:21:24;;;;;;;12.67;5.93;;;;;;;;;;10399223;28;20028;-74
2022/12/03 10:26:37;;;;;;;10.57;5.97;;;;;;;;;;10399550;28;20061;-75
2022/12/03 10:31:38;;;;;;;11.77;5.22;;;;;;;;;;10398492;28;20021;-80
2022/12/03 10:36:39;;;;;;;12.95;5.75;;;;;;;;;;10399858;28;20026;-81
2022/12/03 10:41:40;;;;;;;13.55;7.97;;;;;;;;;;10398402;28;20029;-80
2022/12/03 10:46:41;;;;;;;13.93;7.35;;;;;;;;;;10396535;28;20076;-79
2022/12/03 10:51:44;;;;;;;16.20;6.60;;;;;;;;;;10357590;28;20036;-82
2022/12/03 10:56:45;;;;;;;11.82;5.82;;;;;;;;;;10354084;28;20351;-75
2022/12/03 11:01:46;;;;;;;10.27;5.47;;;;;;;;;;10356201;28;20036;-79
2022/12/03 11:06:47;;;;;;;11.73;6.45;;;;;;;;;;10358478;28;20032;-83
2022/12/03 11:11:48;;;;;;;14.68;7.28;;;;;;;;;;10365262;28;20400;-80
2022/12/03 11:16:51;;;;;;;14.93;7.80;;;;;;;;;;10363498;28;20076;-78
2022/12/03 11:22:04;;;;;;;18.77;8.07;;;;;;;;;;10362868;28;20097;-82
2022/12/03 11:27:06;;;;;;;14.30;6.97;;;;;;;;;;10363173;28;20175;-78
2022/12/03 11:32:07;;;;;;;13.88;7.38;;;;;;;;;;10361398;28;20022;-78
2022/12/03 11:37:10;;;;;;;17.83;8.52;;;;;;;;;;10365561;28;20021;-75
2022/12/03 11:42:24;;;;;;;14.60;8.43;;;;;;;;;;10402775;28;20253;-80
2022/12/03 11:47:24;;;;;;;15.00;7.70;;;;;;;;;;10404100;28;20469;-80
2022/12/03 11:52:32;;;;;;;16.07;7.03;;;;;;;;;;10395927;28;20082;-76
2022/12/03 11:57:36;;;;;;;16.92;9.23;;;;;;;;;;10369392;28;20442;-83
2022/12/03 12:02:38;;;;;;;22.73;10.18;;;;;;;;;;10380953;28;20025;-81
2022/12/03 12:07:38;;;;;;;16.40;8.55;;;;;;;;;;10399135;28;20074;-80
2022/12/03 12:12:40;;;;;;;13.32;7.70;;;;;;;;;;10401332;28;20029;-78
2022/12/03 12:17:41;;;;;;;14.95;8.32;;;;;;;;;;10385684;28;20115;-80
2022/12/03 12:22:43;;;;;;;19.67;8.68;;;;;;;;;;10410556;28;20017;-76
2022/12/03 12:27:46;;;;;;;17.92;8.95;;;;;;;;;;10412053;28;20060;-76
2022/12/03 12:32:46;;;;;;;19.30;9.82;;;;;;;;;;10412029;28;20076;-76
2022/12/03 12:37:48;;;;;;;23.00;10.20;;;;;;;;;;10420763;22;20076;-80
2022/12/03 12:42:57;;;;;;;22.42;10.07;;;;;;;;;;10377812;28;20511;-81
2022/12/03 12:47:57;;;;;;;;;;;;;;;;;;10382570;28;20500;-73
2022/12/03 12:53:01;;;;;;;23.83;11.68;;;;;;;;;;10385014;28;19921;-76
2022/12/03 12:58:04;;;;;;;26.33;12.48;;;;;;;;;;10402061;28;20049;-75
2022/12/03 13:03:05;;;;;;;23.73;11.38;;;;;;;;;;10381678;28;20100;-74
2022/12/03 13:08:24;;;;;;;28.13;12.68;;;;;;;;;;10362724;28;20138;-77
2022/12/03 13:13:38;;;;;;;21.65;10.43;;;;;;;;;;10402189;28;20503;-79
2022/12/03 13:18:40;;;;;;;23.98;10.93;;;;;;;;;;10368678;28;20097;-78
2022/12/03 13:23:40;;;;;;;27.05;11.48;;;;;;;;;;10373575;28;20031;-76
2022/12/03 13:28:40;;;;;;;20.73;11.13;;;;;;;;;;10372540;28;20025;-75
2022/12/03 13:33:41;;;;;;;21.95;11.23;;;;;;;;;;10371942;28;20025;-74
2022/12/03 13:38:42;;;;;;;22.70;10.27;;;;;;;;;;10375914;28;20068;-76
2022/12/03 13:43:42;;;;;;;23.45;11.38;;;;;;;;;;10367724;28;20072;-75
2022/12/03 13:48:44;;;;;;;28.73;11.10;;;;;;;;;;10387032;28;20116;-74
2022/12/03 13:53:44;;;;;;;22.85;10.68;;;;;;;;;;10370092;28;20108;-75
2022/12/03 13:58:44;;;;;;;27.50;12.17;;;;;;;;;;10379121;28;20026;-76
2022/12/03 14:03:44;;;;;;;20.42;10.77;;;;;;;;;;10384563;28;20447;-74
2022/12/03 14:08:45;;;;;;;21.40;10.77;;;;;;;;;;10371955;28;20034;-74
2022/12/03 14:13:45;;;;;;;21.45;11.38;;;;;;;;;;10384333;28;20108;-75
2022/12/03 14:18:45;;;;;;;25.13;10.07;;;;;;;;;;10371961;28;20030;-74
2022/12/03 14:23:46;;;;;;;24.58;11.35;;;;;;;;;;10380570;28;20124;-76
2022/12/03 14:28:47;;;;;;;26.10;11.63;;;;;;;;;;10374775;28;20044;-80
2022/12/03 14:33:49;;;;;;;24.80;11.90;;;;;;;;;;10363785;28;20046;-81
2022/12/03 14:38:50;;;;;;;26.67;10.48;;;;;;;;;;10379010;28;20507;-77
2022/12/03 14:43:51;;;;;;;23.15;11.70;;;;;;;;;;10381349;28;20069;-79
2022/12/03 14:48:51;;;;;;;26.95;11.90;;;;;;;;;;10415128;28;20049;-72
2022/12/03 14:53:51;;;;;;;22.25;10.70;;;;;;;;;;10411743;28;20041;-75
2022/12/03 14:58:51;;;;;;;20.50;10.07;;;;;;;;;;10393197;28;20137;-76
2022/12/03 15:03:52;;;;;;;21.20;9.52;;;;;;;;;;10396924;28;20026;-79
2022/12/03 15:08:53;;;;;;;21.83;10.97;;;;;;;;;;10383710;28;20116;-75
2022/12/03 15:13:54;;;;;;;19.25;9.73;;;;;;;;;;10390249;28;20100;-76
2022/12/03 15:18:54;;;;;;;20.30;9.70;;;;;;;;;;10374105;28;20021;-81
2022/12/03 15:23:54;;;;;;;23.08;10.57;;;;;;;;;;10375555;28;20419;-76
2022/12/03 15:28:54;;;;;;;24.53;11.47;;;;;;;;;;10375295;28;20095;-80
2022/12/03 15:33:56;;;;;;;20.70;9.60;;;;;;;;;;10371587;28;20029;-75
2022/12/03 15:38:56;;;;;;;18.83;9.50;;;;;;;;;;10378352;28;20555;-75
2022/12/03 15:43:58;;;;;;;20.92;9.75;;;;;;;;;;10377988;28;20041;-76
2022/12/03 15:48:58;;;;;;;23.20;11.30;;;;;;;;;;10378095;28;20025;-74
2022/12/03 15:53:58;;;;;;;20.80;9.70;;;;;;;;;;10374728;28;20033;-75
2022/12/03 15:58:59;;;;;;;18.38;9.52;;;;;;;;;;10387640;28;20033;-76
2022/12/03 16:03:59;;;;;;;22.00;10.55;;;;;;;;;;10373525;28;20175;-75
2022/12/03 16:08:59;;;;;;;18.27;9.25;;;;;;;;;;10376700;28;20111;-76
2022/12/03 16:13:59;;;;;;;19.00;10.60;;;;;;;;;;10394624;28;20037;-80
2022/12/03 16:19:00;;;;;;;22.70;10.70;;;;;;;;;;10371770;28;20030;-76
2022/12/03 16:24:00;;;;;;;22.50;10.30;;;;;;;;;;10371738;28;20076;-76
2022/12/03 16:29:01;;;;;;;28.35;12.32;;;;;;;;;;10378310;28;20029;-76
2022/12/03 16:34:18;;;;;;;28.02;11.85;;;;;;;;;;10389483;28;20030;-80
2022/12/03 16:39:21;;;;;;;25.35;12.77;;;;;;;;;;10394315;28;20065;-80
2022/12/03 16:44:42;;;;;;;34.17;12.48;;;;;;;;;;10374366;28;20049;-80
2022/12/03 16:49:42;;;;;;;28.75;13.00;;;;;;;;;;10375881;28;20384;-79
2022/12/03 16:54:42;;;;;;;30.02;14.60;;;;;;;;;;10377588;28;20041;-82
2022/12/03 16:59:47;;;;;;;39.17;16.52;;;;;;;;;;10389922;28;20022;-81
2022/12/03 17:04:48;;;;;;;38.47;15.32;;;;;;;;;;10382697;28;20164;-73
2022/12/03 17:09:49;;;;;;;36.15;15.60;;;;;;;;;;10409663;28;20130;-74
2022/12/03 17:14:49;;;;;;;31.05;13.57;;;;;;;;;;10382269;28;20064;-73
2022/12/03 17:19:49;;;;;;;34.83;15.77;;;;;;;;;;10401225;28;20017;-77
2022/12/03 17:24:50;;;;;;;36.03;13.67;;;;;;;;;;10369231;28;20044;-77
2022/12/03 17:29:50;;;;;;;35.22;15.27;;;;;;;;;;10376874;28;20359;-82
2022/12/03 17:34:50;;;;;;;32.78;12.73;;;;;;;;;;10369152;28;20040;-76
2022/12/03 17:40:06;;;;;;;37.75;15.63;;;;;;;;;;10348310;28;20053;-84
2022/12/03 17:45:07;;;;;;;26.70;12.52;;;;;;;;;;10373982;28;20034;-80
2022/12/03 17:50:09;;;;;;;31.30;14.27;;;;;;;;;;10379102;28;20078;-80
2022/12/03 17:55:09;;;;;;;28.13;13.10;;;;;;;;;;10370671;28;20045;-81
2022/12/03 18:00:10;;;;;;;20.95;10.20;;;;;;;;;;10368385;28;20029;-79
2022/12/03 18:05:10;;;;;;;22.48;9.30;;;;;;;;;;10367270;28;20553;-79
2022/12/03 18:10:10;;;;;;;19.95;9.88;;;;;;;;;;10362456;28;20083;-79
2022/12/03 18:15:10;;;;;;;23.90;10.67;;;;;;;;;;10370177;28;20386;-81
2022/12/03 18:20:11;;;;;;;30.70;11.48;;;;;;;;;;10382240;28;21373;-78
2022/12/03 18:25:12;;;;;;;30.20;11.10;;;;;;;;;;10385409;28;20037;-75
2022/12/03 18:30:12;;;;;;;22.25;10.43;;;;;;;;;;10384295;28;20034;-76
2022/12/03 18:35:12;;;;;;;23.13;9.50;;;;;;;;;;10383549;28;20033;-76
2022/12/03 18:40:17;;;;;;;24.92;10.15;;;;;;;;;;10381114;28;20054;-81
2022/12/03 18:45:17;;;;;;;23.05;9.95;;;;;;;;;;10400240;28;20033;-74
2022/12/03 18:50:19;;;;;;;20.63;10.17;;;;;;;;;;10407235;22;20050;-79
2022/12/03 18:55:20;;;;;;;26.10;10.02;;;;;;;;;;10336900;28;20376;-73
2022/12/03 19:00:20;;;;;;;23.02;10.07;;;;;;;;;;10361388;28;20021;-78
2022/12/03 19:05:21;;;;;;;27.73;10.70;;;;;;;;;;10355743;28;20177;-78
2022/12/03 19:10:23;;;;;;;28.08;8.77;;;;;;;;;;10351834;28;20706;-74
2022/12/03 19:15:23;;;;;;;22.95;9.15;;;;;;;;;;10345810;28;20033;-73
2022/12/03 19:20:24;;;;;;;19.52;9.18;;;;;;;;;;10349488;28;20301;-76
2022/12/03 19:25:24;;;;;;;23.40;10.45;;;;;;;;;;10378699;28;20050;-74
2022/12/03 19:30:25;;;;;;;22.10;10.43;;;;;;;;;;10379149;28;20527;-76
2022/12/03 19:35:25;;;;;;;18.87;8.73;;;;;;;;;;10355795;28;20125;-75
2022/12/03 19:40:25;;;;;;;18.20;8.00;;;;;;;;;;10350311;28;20029;-78
2022/12/03 19:45:25;;;;;;;23.05;10.98;;;;;;;;;;10359100;28;20072;-78
2022/12/03 19:50:26;;;;;;;16.83;7.75;;;;;;;;;;10337363;28;20637;-76
2022/12/03 19:55:26;;;;;;;20.25;7.57;;;;;;;;;;10343853;28;20038;-76
2022/12/03 20:00:26;;;;;;;16.63;8.65;;;;;;;;;;10340086;28;20030;-75
2022/12/03 20:05:27;;;;;;;18.48;6.65;;;;;;;;;;10368477;28;20066;-76
2022/12/03 20:10:27;;;;;;;19.27;8.02;;;;;;;;;;10365788;28;20037;-83
2022/12/03 20:15:28;;;;;;;15.18;7.47;;;;;;;;;;10351538;28;20120;-81
2022/12/03 20:20:29;;;;;;;13.73;6.67;;;;;;;;;;10344113;28;20021;-77
2022/12/03 20:25:29;;;;;;;8.98;4.80;;;;;;;;;;10343970;28;20925;-81
2022/12/03 20:30:30;;;;;;;10.52;5.28;;;;;;;;;;10337401;28;20237;-75
2022/12/03 20:35:31;;;;;;;12.63;5.75;;;;;;;;;;10366063;28;20030;-79
2022/12/03 20:40:34;;;;;;;10.27;5.22;;;;;;;;;;10350778;28;20014;-82
2022/12/03 20:45:36;;;;;;;7.25;3.95;;;;;;;;;;10335565;28;20056;-79
2022/12/03 20:50:39;;;;;;;10.73;5.72;;;;;;;;;;10345825;28;20049;-80
2022/12/03 20:55:40;;;;;;;13.48;6.07;;;;;;;;;;10350834;28;20022;-81
2022/12/03 21:00:40;;;;;;;10.23;5.75;;;;;;;;;;10368597;28;20022;-79
2022/12/03 21:05:42;;;;;;;14.00;6.10;;;;;;;;;;10398710;22;20439;-81
2022/12/03 21:10:45;;;;;;;10.95;6.03;;;;;;;;;;10418895;28;20043;-80
2022/12/03 21:15:46;;;;;;;17.33;8.38;;;;;;;;;;10415832;28;20323;-74
2022/12/03 21:20:46;;;;;;;20.02;7.82;;;;;;;;;;10406965;28;20029;-75
2022/12/03 21:25:47;;;;;;;19.83;8.25;;;;;;;;;;10411502;28;20443;-81
2022/12/03 21:30:48;;;;;;;17.17;8.30;;;;;;;;;;10377013;28;20487;-76
2022/12/03 21:35:49;;;;;;;20.30;8.45;;;;;;;;;;10391679;28;20021;-77
2022/12/03 21:40:49;;;;;;;18.60;9.03;;;;;;;;;;10367709;28;20534;-74
2022/12/03 21:45:51;;;;;;;16.85;8.18;;;;;;;;;;10404636;28;20267;-73
2022/12/03 21:51:05;;;;;;;20.75;8.73;;;;;;;;;;10403597;28;20539;-75
2022/12/03 21:56:07;;;;;;;19.35;8.15;;;;;;;;;;10391266;28;20390;-77
2022/12/03 22:01:16;;;;;;;19.20;9.02;;;;;;;;;;10352652;28;20051;-79
2022/12/03 22:06:17;;;;;;;17.55;8.27;;;;;;;;;;10377935;28;20559;-78
2022/12/03 22:11:21;;;;;;;20.58;9.38;;;;;;;;;;10366664;28;20355;-78
2022/12/03 22:16:23;;;;;;;17.92;7.05;;;;;;;;;;10367467;28;20036;-74
2022/12/03 22:21:24;;;;;;;18.58;7.70;;;;;;;;;;10366095;28;20491;-76
2022/12/03 22:26:24;;;;;;;17.75;8.32;;;;;;;;;;10368707;28;20029;-80
2022/12/03 22:31:25;;;;;;;17.45;7.97;;;;;;;;;;10378037;28;20037;-80
2022/12/03 22:36:25;;;;;;;15.45;7.22;;;;;;;;;;10369502;28;20112;-79
2022/12/03 22:41:25;;;;;;;18.25;7.97;;;;;;;;;;10370894;28;20083;-77
2022/12/03 22:46:26;;;;;;;15.05;6.75;;;;;;;;;;10373459;28;20101;-76
2022/12/03 22:51:26;;;;;;;16.88;7.38;;;;;;;;;;10368210;28;20026;-78
2022/12/03 22:56:27;;;;;;;12.75;6.47;;;;;;;;;;10373327;28;20034;-82
2022/12/03 23:01:32;;;;;;;15.25;7.10;;;;;;;;;;10389489;28;20025;-80
2022/12/03 23:06:34;;;;;;;17.55;7.40;;;;;;;;;;10367453;28;20057;-79
2022/12/03 23:11:35;;;;;;;12.48;6.72;;;;;;;;;;10380355;28;20026;-79
2022/12/03 23:16:35;;;;;;;15.10;7.97;;;;;;;;;;10366114;28;20030;-79
2022/12/03 23:21:35;;;;;;;19.43;6.87;;;;;;;;;;10371783;28;20014;-78
2022/12/03 23:26:37;;;;;;;11.43;6.68;;;;;;;;;;10382024;28;20030;-78
2022/12/03 23:31:37;;;;;;;15.05;6.72;;;;;;;;;;10370473;28;20025;-78
2022/12/03 23:36:37;;;;;;;18.73;7.13;;;;;;;;;;10383003;28;20049;-79
2022/12/03 23:41:37;;;;;;;16.90;6.88;;;;;;;;;;10378713;28;20017;-80
2022/12/03 23:46:38;;;;;;;13.85;7.25;;;;;;;;;;10372779;28;20087;-76
2022/12/03 23:51:38;;;;;;;14.85;7.70;;;;;;;;;;10390826;28;20014;-81
2022/12/03 23:56:39;;;;;;;21.40;7.30;;;;;;;;;;10439147;28;20028;-76
